createdAt,value
2019-05-29T05:11:57.847Z,4.67
2019-05-29T05:21:57.782Z,4.69
2019-05-29T05:31:57.795Z,4.84
2019-05-29T05:41:59.945Z,5.28
2019-05-29T05:51:57.728Z,4.63
2019-05-29T06:01:57.907Z,4.83
2019-05-29T06:11:59.600Z,4.58
2019-05-29T06:22:00.082Z,4.07
2019-05-29T06:31:59.217Z,3.94
2019-05-29T06:42:00.223Z,4.46
2019-05-29T06:51:57.915Z,4.30
2019-05-29T07:01:57.808Z,4.73
2019-05-29T07:11:57.771Z,4.31
2019-05-29T07:21:57.754Z,4.29
2019-05-29T07:31:59.740Z,5.30
2019-05-29T07:41:57.347Z,4.85
2019-05-29T07:51:59.793Z,4.74
2019-05-29T08:01:59.756Z,4.87
2019-05-29T08:11:57.369Z,4.65
2019-05-29T08:21:59.587Z,4.22
2019-05-29T08:31:57.816Z,3.97
2019-05-29T08:42:21.394Z,4.57
2019-05-29T08:52:11.059Z,4.16
2019-05-29T09:01:57.819Z,4.63
2019-05-29T09:11:57.785Z,3.75
2019-05-29T09:21:57.799Z,3.74
2019-05-29T09:31:57.822Z,4.19
2019-05-29T09:41:57.540Z,4.41
2019-05-29T09:51:56.249Z,4.45
2019-05-29T10:02:00.352Z,4.22
2019-05-29T10:11:59.438Z,3.41
2019-05-29T10:21:58.336Z,2.92
2019-05-29T10:31:57.535Z,3.08
2019-05-29T10:41:57.559Z,3.45
2019-05-29T10:52:10.708Z,3.22
2019-05-29T11:01:56.826Z,3.45
2019-05-29T11:11:57.679Z,3.02
2019-05-29T11:22:04.611Z,3.72
2019-05-29T11:31:57.072Z,4.04
2019-05-29T11:41:57.100Z,2.99
2019-05-29T11:52:18.794Z,3.44
2019-05-29T12:01:57.375Z,3.21
2019-05-29T12:11:57.992Z,2.97
2019-05-29T12:21:58.352Z,3.01
2019-05-29T12:31:57.113Z,4.39
2019-05-29T12:41:57.595Z,3.53
2019-05-29T12:51:57.680Z,2.25
2019-05-29T13:01:58.452Z,2.99
2019-05-29T13:11:58.458Z,3.95
2019-05-29T13:21:57.375Z,2.48
2019-05-29T13:31:58.115Z,3.96
2019-05-29T13:41:58.606Z,3.17
2019-05-29T13:51:57.208Z,3.61
2019-05-29T14:01:58.429Z,3.70
2019-05-29T14:11:58.912Z,3.10
2019-05-29T14:21:57.326Z,3.11
2019-05-29T14:31:57.220Z,4.12
2019-05-29T14:41:57.905Z,3.06
2019-05-29T14:51:57.832Z,3.79
2019-05-29T15:01:57.293Z,2.42
2019-05-29T15:11:57.304Z,3.24
2019-05-29T15:21:57.456Z,3.34
2019-05-29T15:31:57.432Z,2.67
2019-05-29T15:41:57.385Z,2.41
2019-05-29T15:51:57.565Z,2.89
2019-05-29T16:01:57.386Z,2.71
2019-05-29T16:11:57.494Z,2.42
2019-05-29T16:21:57.866Z,2.46
2019-05-29T16:31:57.952Z,2.63
2019-05-29T16:41:57.863Z,2.90
2019-05-29T16:51:57.864Z,2.06
2019-05-29T17:01:57.430Z,2.54
2019-05-29T17:11:57.765Z,2.34
2019-05-29T17:21:57.808Z,2.01
2019-05-29T17:31:57.854Z,2.40
2019-05-29T17:41:57.835Z,3.27
2019-05-29T17:51:57.893Z,2.75
2019-05-29T18:01:57.998Z,4.59
2019-05-29T18:11:57.996Z,2.90
2019-05-29T18:21:57.900Z,2.76
2019-05-29T18:31:57.880Z,4.45
2019-05-29T18:41:57.837Z,3.69
2019-05-29T18:52:00.253Z,4.09
2019-05-29T19:01:59.832Z,4.18
